sensor_id;sensor_type;location;lat;lon;timestamp;P1;durP1;ratioP1;P2;durP2;ratioP2
12554;SDS011;6343;50.868;4.700;2022-09-28T00:01:54;3.60;;;1.80;;
12554;SDS011;6343;50.868;4.700;2022-09-28T00:04:21;4.33;;;2.43;;
12554;SDS011;6343;50.868;4.700;2022-09-28T00:06:47;3.73;;;2.00;;
12554;SDS011;6343;50.868;4.700;2022-09-28T00:09:13;3.27;;;2.47;;
12554;SDS011;6343;50.868;4.700;2022-09-28T00:11:40;5.40;;;2.30;;
12554;SDS011;6343;50.868;4.700;2022-09-28T00:14:07;4.23;;;1.73;;
12554;SDS011;6343;50.868;4.700;2022-09-28T00:16:34;8.13;;;2.40;;
12554;SDS011;6343;50.868;4.700;2022-09-28T00:19:02;4.23;;;1.87;;
12554;SDS011;6343;50.868;4.700;2022-09-28T00:21:30;4.50;;;2.07;;
12554;SDS011;6343;50.868;4.700;2022-09-28T00:23:57;4.40;;;2.13;;
12554;SDS011;6343;50.868;4.700;2022-09-28T00:29:19;3.70;;;2.20;;
12554;SDS011;6343;50.868;4.700;2022-09-28T00:31:46;2.90;;;2.13;;
12554;SDS011;6343;50.868;4.700;2022-09-28T00:34:12;7.20;;;2.70;;
12554;SDS011;6343;50.868;4.700;2022-09-28T00:36:41;2.73;;;2.10;;
12554;SDS011;6343;50.868;4.700;2022-09-28T00:39:07;3.87;;;2.40;;
12554;SDS011;6343;50.868;4.700;2022-09-28T00:41:34;2.97;;;2.13;;
12554;SDS011;6343;50.868;4.700;2022-09-28T00:46:45;4.77;;;3.30;;
12554;SDS011;6343;50.868;4.700;2022-09-28T00:49:12;4.37;;;3.00;;
12554;SDS011;6343;50.868;4.700;2022-09-28T00:51:43;6.10;;;3.03;;
12554;SDS011;6343;50.868;4.700;2022-09-28T00:54:10;4.67;;;3.03;;
12554;SDS011;6343;50.868;4.700;2022-09-28T00:56:37;3.70;;;3.00;;
12554;SDS011;6343;50.868;4.700;2022-09-28T00:59:05;8.50;;;3.50;;
12554;SDS011;6343;50.868;4.700;2022-09-28T01:01:33;4.73;;;3.30;;
12554;SDS011;6343;50.868;4.700;2022-09-28T01:04:00;5.83;;;3.43;;
12554;SDS011;6343;50.868;4.700;2022-09-28T01:06:27;5.40;;;3.90;;
12554;SDS011;6343;50.868;4.700;2022-09-28T01:08:56;5.37;;;3.50;;
12554;SDS011;6343;50.868;4.700;2022-09-28T01:11:23;4.23;;;3.13;;
12554;SDS011;6343;50.868;4.700;2022-09-28T01:13:50;4.20;;;3.67;;
12554;SDS011;6343;50.868;4.700;2022-09-28T01:21:35;4.57;;;3.03;;
12554;SDS011;6343;50.868;4.700;2022-09-28T01:26:38;4.53;;;2.97;;
12554;SDS011;6343;50.868;4.700;2022-09-28T01:31:55;7.20;;;3.60;;
12554;SDS011;6343;50.868;4.700;2022-09-28T01:34:30;4.57;;;3.50;;
12554;SDS011;6343;50.868;4.700;2022-09-28T01:37:03;4.40;;;3.27;;
12554;SDS011;6343;50.868;4.700;2022-09-28T01:39:32;4.47;;;2.97;;
12554;SDS011;6343;50.868;4.700;2022-09-28T01:42:00;3.83;;;2.83;;
12554;SDS011;6343;50.868;4.700;2022-09-28T01:44:28;8.67;;;2.93;;
12554;SDS011;6343;50.868;4.700;2022-09-28T01:46:56;5.67;;;3.00;;
12554;SDS011;6343;50.868;4.700;2022-09-28T01:49:35;5.87;;;2.70;;
12554;SDS011;6343;50.868;4.700;2022-09-28T01:52:08;3.43;;;2.80;;
12554;SDS011;6343;50.868;4.700;2022-09-28T01:54:43;4.77;;;3.20;;
12554;SDS011;6343;50.868;4.700;2022-09-28T01:57:14;4.93;;;2.63;;
12554;SDS011;6343;50.868;4.700;2022-09-28T01:59:49;3.60;;;2.80;;
12554;SDS011;6343;50.868;4.700;2022-09-28T02:02:24;3.07;;;2.43;;
12554;SDS011;6343;50.868;4.700;2022-09-28T02:04:56;4.77;;;2.90;;
12554;SDS011;6343;50.868;4.700;2022-09-28T02:07:26;6.23;;;2.83;;
12554;SDS011;6343;50.868;4.700;2022-09-28T02:09:54;4.27;;;2.73;;
12554;SDS011;6343;50.868;4.700;2022-09-28T02:12:34;5.60;;;2.83;;
12554;SDS011;6343;50.868;4.700;2022-09-28T02:15:14;5.10;;;2.87;;
12554;SDS011;6343;50.868;4.700;2022-09-28T02:17:41;3.00;;;2.60;;
12554;SDS011;6343;50.868;4.700;2022-09-28T02:20:08;4.50;;;3.00;;
12554;SDS011;6343;50.868;4.700;2022-09-28T02:22:42;4.70;;;2.73;;
12554;SDS011;6343;50.868;4.700;2022-09-28T02:27:45;6.17;;;2.80;;
12554;SDS011;6343;50.868;4.700;2022-09-28T02:30:14;6.83;;;2.47;;
12554;SDS011;6343;50.868;4.700;2022-09-28T02:32:43;7.20;;;3.07;;
12554;SDS011;6343;50.868;4.700;2022-09-28T02:35:10;5.77;;;2.67;;
12554;SDS011;6343;50.868;4.700;2022-09-28T02:37:37;4.00;;;2.80;;
12554;SDS011;6343;50.868;4.700;2022-09-28T02:40:10;3.47;;;2.63;;
12554;SDS011;6343;50.868;4.700;2022-09-28T02:42:41;4.60;;;2.43;;
12554;SDS011;6343;50.868;4.700;2022-09-28T02:45:18;2.97;;;2.67;;
12554;SDS011;6343;50.868;4.700;2022-09-28T02:50:32;5.63;;;2.43;;
12554;SDS011;6343;50.868;4.700;2022-09-28T02:53:07;3.43;;;2.50;;
12554;SDS011;6343;50.868;4.700;2022-09-28T02:58:05;3.37;;;2.50;;
12554;SDS011;6343;50.868;4.700;2022-09-28T03:00:36;4.13;;;2.60;;
12554;SDS011;6343;50.868;4.700;2022-09-28T03:05:37;3.73;;;2.50;;
12554;SDS011;6343;50.868;4.700;2022-09-28T03:08:09;4.93;;;2.63;;
12554;SDS011;6343;50.868;4.700;2022-09-28T03:13:04;4.23;;;2.30;;
12554;SDS011;6343;50.868;4.700;2022-09-28T03:15:31;4.63;;;2.50;;
12554;SDS011;6343;50.868;4.700;2022-09-28T03:17:58;4.97;;;2.73;;
12554;SDS011;6343;50.868;4.700;2022-09-28T03:20:24;4.03;;;2.57;;
12554;SDS011;6343;50.868;4.700;2022-09-28T03:22:50;4.27;;;2.40;;
12554;SDS011;6343;50.868;4.700;2022-09-28T03:25:16;3.10;;;2.30;;
12554;SDS011;6343;50.868;4.700;2022-09-28T03:27:43;3.30;;;2.23;;
12554;SDS011;6343;50.868;4.700;2022-09-28T03:30:09;6.40;;;2.50;;
12554;SDS011;6343;50.868;4.700;2022-09-28T03:32:36;4.40;;;2.60;;
12554;SDS011;6343;50.868;4.700;2022-09-28T03:35:03;3.60;;;1.97;;
12554;SDS011;6343;50.868;4.700;2022-09-28T03:37:29;3.47;;;2.07;;
12554;SDS011;6343;50.868;4.700;2022-09-28T03:39:55;3.43;;;2.40;;
12554;SDS011;6343;50.868;4.700;2022-09-28T03:42:21;4.23;;;2.07;;
12554;SDS011;6343;50.868;4.700;2022-09-28T03:44:47;4.33;;;2.13;;
12554;SDS011;6343;50.868;4.700;2022-09-28T03:47:13;4.60;;;2.90;;
12554;SDS011;6343;50.868;4.700;2022-09-28T03:49:42;6.03;;;2.37;;
12554;SDS011;6343;50.868;4.700;2022-09-28T03:52:09;3.23;;;2.20;;
12554;SDS011;6343;50.868;4.700;2022-09-28T03:54:35;3.20;;;1.97;;
12554;SDS011;6343;50.868;4.700;2022-09-28T03:57:01;3.37;;;2.03;;
12554;SDS011;6343;50.868;4.700;2022-09-28T03:59:27;5.83;;;2.17;;
12554;SDS011;6343;50.868;4.700;2022-09-28T04:01:54;3.37;;;1.90;;
12554;SDS011;6343;50.868;4.700;2022-09-28T04:04:20;4.50;;;2.20;;
12554;SDS011;6343;50.868;4.700;2022-09-28T04:06:47;3.50;;;1.80;;
12554;SDS011;6343;50.868;4.700;2022-09-28T04:09:13;2.50;;;1.87;;
12554;SDS011;6343;50.868;4.700;2022-09-28T04:11:40;3.23;;;1.87;;
12554;SDS011;6343;50.868;4.700;2022-09-28T04:14:07;3.27;;;1.93;;
12554;SDS011;6343;50.868;4.700;2022-09-28T04:16:33;3.93;;;1.77;;
12554;SDS011;6343;50.868;4.700;2022-09-28T04:18:59;2.43;;;1.63;;
12554;SDS011;6343;50.868;4.700;2022-09-28T04:21:27;5.33;;;2.20;;
12554;SDS011;6343;50.868;4.700;2022-09-28T04:23:53;4.67;;;1.80;;
12554;SDS011;6343;50.868;4.700;2022-09-28T04:26:20;2.90;;;1.97;;
12554;SDS011;6343;50.868;4.700;2022-09-28T04:28:47;2.83;;;1.97;;
12554;SDS011;6343;50.868;4.700;2022-09-28T04:34:07;3.47;;;1.60;;
12554;SDS011;6343;50.868;4.700;2022-09-28T04:36:33;3.10;;;1.70;;
12554;SDS011;6343;50.868;4.700;2022-09-28T04:39:00;4.63;;;1.87;;
12554;SDS011;6343;50.868;4.700;2022-09-28T04:41:26;2.63;;;1.47;;
12554;SDS011;6343;50.868;4.700;2022-09-28T04:43:52;4.67;;;1.53;;
12554;SDS011;6343;50.868;4.700;2022-09-28T04:46:18;5.80;;;1.80;;
12554;SDS011;6343;50.868;4.700;2022-09-28T04:48:44;3.47;;;1.50;;
12554;SDS011;6343;50.868;4.700;2022-09-28T04:51:10;3.10;;;1.40;;
12554;SDS011;6343;50.868;4.700;2022-09-28T04:53:37;2.40;;;1.67;;
12554;SDS011;6343;50.868;4.700;2022-09-28T04:56:08;1.80;;;1.40;;
12554;SDS011;6343;50.868;4.700;2022-09-28T04:58:34;2.77;;;1.40;;
12554;SDS011;6343;50.868;4.700;2022-09-28T05:01:02;5.63;;;1.50;;
12554;SDS011;6343;50.868;4.700;2022-09-28T05:03:29;2.40;;;1.47;;
12554;SDS011;6343;50.868;4.700;2022-09-28T05:05:55;3.47;;;1.53;;
12554;SDS011;6343;50.868;4.700;2022-09-28T05:08:21;4.30;;;2.00;;
12554;SDS011;6343;50.868;4.700;2022-09-28T05:10:48;4.17;;;1.50;;
12554;SDS011;6343;50.868;4.700;2022-09-28T05:13:14;3.00;;;2.00;;
12554;SDS011;6343;50.868;4.700;2022-09-28T05:15:42;5.20;;;1.67;;
12554;SDS011;6343;50.868;4.700;2022-09-28T05:18:08;2.33;;;1.63;;
12554;SDS011;6343;50.868;4.700;2022-09-28T05:20:38;5.33;;;1.80;;
12554;SDS011;6343;50.868;4.700;2022-09-28T05:23:05;3.40;;;1.57;;
12554;SDS011;6343;50.868;4.700;2022-09-28T05:25:33;3.30;;;1.50;;
12554;SDS011;6343;50.868;4.700;2022-09-28T05:28:00;6.70;;;1.97;;
12554;SDS011;6343;50.868;4.700;2022-09-28T05:30:27;2.13;;;1.50;;
12554;SDS011;6343;50.868;4.700;2022-09-28T05:32:53;1.43;;;1.30;;
12554;SDS011;6343;50.868;4.700;2022-09-28T05:35:19;3.73;;;1.53;;
12554;SDS011;6343;50.868;4.700;2022-09-28T05:37:45;5.83;;;1.67;;
12554;SDS011;6343;50.868;4.700;2022-09-28T05:40:12;1.97;;;1.40;;
12554;SDS011;6343;50.868;4.700;2022-09-28T05:42:38;2.27;;;1.60;;
12554;SDS011;6343;50.868;4.700;2022-09-28T05:45:05;3.87;;;1.73;;
12554;SDS011;6343;50.868;4.700;2022-09-28T05:47:35;3.67;;;1.87;;
12554;SDS011;6343;50.868;4.700;2022-09-28T05:50:02;3.30;;;1.53;;
12554;SDS011;6343;50.868;4.700;2022-09-28T05:52:28;1.93;;;1.70;;
12554;SDS011;6343;50.868;4.700;2022-09-28T05:54:54;4.83;;;1.83;;
12554;SDS011;6343;50.868;4.700;2022-09-28T05:57:20;4.73;;;1.50;;
12554;SDS011;6343;50.868;4.700;2022-09-28T05:59:46;4.30;;;1.60;;
12554;SDS011;6343;50.868;4.700;2022-09-28T06:02:12;6.23;;;2.03;;
12554;SDS011;6343;50.868;4.700;2022-09-28T06:04:38;3.17;;;1.60;;
12554;SDS011;6343;50.868;4.700;2022-09-28T06:07:04;3.80;;;1.70;;
12554;SDS011;6343;50.868;4.700;2022-09-28T06:09:30;7.17;;;1.73;;
12554;SDS011;6343;50.868;4.700;2022-09-28T06:11:57;2.60;;;1.40;;
12554;SDS011;6343;50.868;4.700;2022-09-28T06:14:23;3.43;;;2.03;;
12554;SDS011;6343;50.868;4.700;2022-09-28T06:16:50;4.37;;;2.00;;
12554;SDS011;6343;50.868;4.700;2022-09-28T06:19:16;4.93;;;2.70;;
12554;SDS011;6343;50.868;4.700;2022-09-28T06:21:42;4.67;;;2.10;;
12554;SDS011;6343;50.868;4.700;2022-09-28T06:24:08;6.30;;;1.90;;
12554;SDS011;6343;50.868;4.700;2022-09-28T06:26:34;6.67;;;1.80;;
12554;SDS011;6343;50.868;4.700;2022-09-28T06:29:01;6.43;;;2.10;;
12554;SDS011;6343;50.868;4.700;2022-09-28T06:31:27;3.97;;;1.90;;
12554;SDS011;6343;50.868;4.700;2022-09-28T06:33:55;2.97;;;2.00;;
12554;SDS011;6343;50.868;4.700;2022-09-28T06:36:21;4.30;;;1.60;;
12554;SDS011;6343;50.868;4.700;2022-09-28T06:38:47;1.97;;;1.77;;
12554;SDS011;6343;50.868;4.700;2022-09-28T06:41:13;4.23;;;2.47;;
12554;SDS011;6343;50.868;4.700;2022-09-28T06:43:40;4.57;;;2.27;;
12554;SDS011;6343;50.868;4.700;2022-09-28T06:46:07;11.00;;;2.50;;
12554;SDS011;6343;50.868;4.700;2022-09-28T06:48:37;4.00;;;2.43;;
12554;SDS011;6343;50.868;4.700;2022-09-28T06:51:03;4.83;;;2.13;;
12554;SDS011;6343;50.868;4.700;2022-09-28T06:53:29;3.37;;;2.50;;
12554;SDS011;6343;50.868;4.700;2022-09-28T06:55:56;2.97;;;2.23;;
12554;SDS011;6343;50.868;4.700;2022-09-28T06:58:22;6.23;;;2.80;;
12554;SDS011;6343;50.868;4.700;2022-09-28T07:00:51;5.17;;;3.57;;
12554;SDS011;6343;50.868;4.700;2022-09-28T07:03:19;5.23;;;2.60;;
12554;SDS011;6343;50.868;4.700;2022-09-28T07:05:47;9.37;;;4.07;;
12554;SDS011;6343;50.868;4.700;2022-09-28T07:08:13;10.17;;;3.80;;
12554;SDS011;6343;50.868;4.700;2022-09-28T07:10:47;5.57;;;3.70;;
12554;SDS011;6343;50.868;4.700;2022-09-28T07:13:14;5.33;;;3.23;;
12554;SDS011;6343;50.868;4.700;2022-09-28T07:15:40;7.13;;;3.73;;
12554;SDS011;6343;50.868;4.700;2022-09-28T07:18:07;4.27;;;3.40;;
12554;SDS011;6343;50.868;4.700;2022-09-28T07:20:35;6.30;;;4.00;;
12554;SDS011;6343;50.868;4.700;2022-09-28T07:23:03;5.83;;;3.90;;
12554;SDS011;6343;50.868;4.700;2022-09-28T07:25:29;7.87;;;4.07;;
12554;SDS011;6343;50.868;4.700;2022-09-28T07:28:01;8.57;;;4.33;;
12554;SDS011;6343;50.868;4.700;2022-09-28T07:30:28;7.93;;;3.80;;
12554;SDS011;6343;50.868;4.700;2022-09-28T07:32:56;5.67;;;4.23;;
12554;SDS011;6343;50.868;4.700;2022-09-28T07:35:22;12.53;;;4.10;;
12554;SDS011;6343;50.868;4.700;2022-09-28T07:37:55;6.03;;;3.53;;
12554;SDS011;6343;50.868;4.700;2022-09-28T07:40:22;9.07;;;4.20;;
12554;SDS011;6343;50.868;4.700;2022-09-28T07:43:06;12.17;;;5.10;;
12554;SDS011;6343;50.868;4.700;2022-09-28T07:45:35;5.73;;;3.30;;
12554;SDS011;6343;50.868;4.700;2022-09-28T07:48:02;5.20;;;3.40;;
12554;SDS011;6343;50.868;4.700;2022-09-28T07:50:28;7.57;;;3.63;;
12554;SDS011;6343;50.868;4.700;2022-09-28T07:52:55;7.53;;;3.77;;
12554;SDS011;6343;50.868;4.700;2022-09-28T07:55:21;7.07;;;3.80;;
12554;SDS011;6343;50.868;4.700;2022-09-28T07:57:54;6.67;;;3.40;;
12554;SDS011;6343;50.868;4.700;2022-09-28T08:00:23;5.90;;;3.20;;
12554;SDS011;6343;50.868;4.700;2022-09-28T08:02:49;7.10;;;3.63;;
12554;SDS011;6343;50.868;4.700;2022-09-28T08:05:16;5.37;;;3.40;;
12554;SDS011;6343;50.868;4.700;2022-09-28T08:07:42;4.47;;;2.90;;
12554;SDS011;6343;50.868;4.700;2022-09-28T08:10:08;5.60;;;3.50;;
12554;SDS011;6343;50.868;4.700;2022-09-28T08:12:35;7.03;;;2.83;;
12554;SDS011;6343;50.868;4.700;2022-09-28T08:15:05;4.53;;;2.80;;
12554;SDS011;6343;50.868;4.700;2022-09-28T08:17:35;5.73;;;2.80;;
12554;SDS011;6343;50.868;4.700;2022-09-28T08:20:02;9.00;;;2.60;;
12554;SDS011;6343;50.868;4.700;2022-09-28T08:22:47;4.57;;;2.63;;
12554;SDS011;6343;50.868;4.700;2022-09-28T08:25:13;3.97;;;2.20;;
12554;SDS011;6343;50.868;4.700;2022-09-28T08:27:39;5.70;;;2.37;;
12554;SDS011;6343;50.868;4.700;2022-09-28T08:30:05;5.40;;;2.30;;
12554;SDS011;6343;50.868;4.700;2022-09-28T08:32:32;7.97;;;3.60;;
12554;SDS011;6343;50.868;4.700;2022-09-28T08:34:59;5.93;;;2.93;;
12554;SDS011;6343;50.868;4.700;2022-09-28T08:37:25;4.97;;;2.37;;
12554;SDS011;6343;50.868;4.700;2022-09-28T08:39:51;6.27;;;2.50;;
12554;SDS011;6343;50.868;4.700;2022-09-28T08:45:04;5.23;;;2.60;;
12554;SDS011;6343;50.868;4.700;2022-09-28T08:50:23;11.27;;;2.90;;
12554;SDS011;6343;50.868;4.700;2022-09-28T08:52:52;5.57;;;2.80;;
12554;SDS011;6343;50.868;4.700;2022-09-28T08:55:27;8.67;;;2.60;;
12554;SDS011;6343;50.868;4.700;2022-09-28T08:58:04;4.57;;;2.57;;
12554;SDS011;6343;50.868;4.700;2022-09-28T09:00:37;4.37;;;2.07;;
12554;SDS011;6343;50.868;4.700;2022-09-28T09:03:05;6.43;;;2.70;;
12554;SDS011;6343;50.868;4.700;2022-09-28T09:05:44;3.90;;;2.00;;
12554;SDS011;6343;50.868;4.700;2022-09-28T09:10:51;9.67;;;2.70;;
12554;SDS011;6343;50.868;4.700;2022-09-28T09:18:56;7.90;;;2.40;;
12554;SDS011;6343;50.868;4.700;2022-09-28T09:23:55;4.23;;;1.97;;
12554;SDS011;6343;50.868;4.700;2022-09-28T09:26:34;2.20;;;1.60;;
12554;SDS011;6343;50.868;4.700;2022-09-28T09:37:09;5.30;;;1.80;;
12554;SDS011;6343;50.868;4.700;2022-09-28T09:44:51;5.87;;;2.07;;
12554;SDS011;6343;50.868;4.700;2022-09-28T09:47:29;5.23;;;2.23;;
12554;SDS011;6343;50.868;4.700;2022-09-28T09:50:04;4.97;;;2.17;;
12554;SDS011;6343;50.868;4.700;2022-09-28T09:52:50;5.80;;;2.43;;
12554;SDS011;6343;50.868;4.700;2022-09-28T09:55:40;5.63;;;2.13;;
12554;SDS011;6343;50.868;4.700;2022-09-28T09:58:08;2.87;;;1.70;;
12554;SDS011;6343;50.868;4.700;2022-09-28T10:00:41;5.97;;;2.50;;
12554;SDS011;6343;50.868;4.700;2022-09-28T10:03:22;6.37;;;2.30;;
12554;SDS011;6343;50.868;4.700;2022-09-28T10:05:59;4.77;;;2.10;;
12554;SDS011;6343;50.868;4.700;2022-09-28T10:08:28;8.33;;;2.03;;
12554;SDS011;6343;50.868;4.700;2022-09-28T10:11:16;6.03;;;1.80;;
12554;SDS011;6343;50.868;4.700;2022-09-28T10:13:45;4.47;;;1.80;;
12554;SDS011;6343;50.868;4.700;2022-09-28T10:16:14;6.70;;;2.13;;
12554;SDS011;6343;50.868;4.700;2022-09-28T10:18:41;3.17;;;1.60;;
12554;SDS011;6343;50.868;4.700;2022-09-28T10:21:10;5.63;;;1.80;;
12554;SDS011;6343;50.868;4.700;2022-09-28T10:23:37;6.00;;;2.10;;
12554;SDS011;6343;50.868;4.700;2022-09-28T10:26:23;6.10;;;1.87;;
12554;SDS011;6343;50.868;4.700;2022-09-28T10:28:54;4.97;;;1.73;;
12554;SDS011;6343;50.868;4.700;2022-09-28T10:31:38;2.77;;;1.43;;
12554;SDS011;6343;50.868;4.700;2022-09-28T10:34:05;5.93;;;1.93;;
12554;SDS011;6343;50.868;4.700;2022-09-28T10:36:32;2.87;;;1.47;;
12554;SDS011;6343;50.868;4.700;2022-09-28T10:39:03;5.67;;;2.07;;
12554;SDS011;6343;50.868;4.700;2022-09-28T10:41:30;9.03;;;2.27;;
12554;SDS011;6343;50.868;4.700;2022-09-28T10:43:57;3.97;;;1.60;;
12554;SDS011;6343;50.868;4.700;2022-09-28T10:46:31;6.37;;;1.60;;
12554;SDS011;6343;50.868;4.700;2022-09-28T10:49:02;3.27;;;1.67;;
12554;SDS011;6343;50.868;4.700;2022-09-28T10:51:39;3.13;;;1.33;;
12554;SDS011;6343;50.868;4.700;2022-09-28T10:54:09;2.50;;;1.17;;
12554;SDS011;6343;50.868;4.700;2022-09-28T10:56:38;7.03;;;1.50;;
12554;SDS011;6343;50.868;4.700;2022-09-28T10:59:21;3.07;;;1.37;;
12554;SDS011;6343;50.868;4.700;2022-09-28T11:01:51;4.40;;;1.50;;
12554;SDS011;6343;50.868;4.700;2022-09-28T11:04:18;5.50;;;1.47;;
12554;SDS011;6343;50.868;4.700;2022-09-28T11:06:45;5.73;;;1.33;;
12554;SDS011;6343;50.868;4.700;2022-09-28T11:09:25;2.93;;;1.30;;
12554;SDS011;6343;50.868;4.700;2022-09-28T11:11:52;2.80;;;1.23;;
12554;SDS011;6343;50.868;4.700;2022-09-28T11:14:31;5.67;;;1.17;;
12554;SDS011;6343;50.868;4.700;2022-09-28T11:17:14;2.23;;;1.03;;
12554;SDS011;6343;50.868;4.700;2022-09-28T11:19:40;2.53;;;1.20;;
12554;SDS011;6343;50.868;4.700;2022-09-28T11:24:49;3.93;;;0.70;;
12554;SDS011;6343;50.868;4.700;2022-09-28T11:27:22;2.07;;;0.70;;
12554;SDS011;6343;50.868;4.700;2022-09-28T11:30:20;0.53;;;0.50;;
12554;SDS011;6343;50.868;4.700;2022-09-28T11:32:39;2.17;;;0.70;;
12554;SDS011;6343;50.868;4.700;2022-09-28T11:35:13;3.17;;;0.50;;
12554;SDS011;6343;50.868;4.700;2022-09-28T11:37:44;2.10;;;0.90;;
12554;SDS011;6343;50.868;4.700;2022-09-28T11:43:09;2.07;;;1.00;;
12554;SDS011;6343;50.868;4.700;2022-09-28T11:48:05;0.90;;;0.53;;
12554;SDS011;6343;50.868;4.700;2022-09-28T11:53:19;5.23;;;1.00;;
12554;SDS011;6343;50.868;4.700;2022-09-28T11:58:34;1.70;;;0.80;;
12554;SDS011;6343;50.868;4.700;2022-09-28T12:03:45;1.97;;;1.10;;
12554;SDS011;6343;50.868;4.700;2022-09-28T12:06:17;3.30;;;1.10;;
12554;SDS011;6343;50.868;4.700;2022-09-28T12:08:46;2.03;;;1.13;;
12554;SDS011;6343;50.868;4.700;2022-09-28T12:11:23;2.53;;;1.10;;
12554;SDS011;6343;50.868;4.700;2022-09-28T12:13:53;6.10;;;1.70;;
12554;SDS011;6343;50.868;4.700;2022-09-28T12:16:24;2.33;;;1.13;;
12554;SDS011;6343;50.868;4.700;2022-09-28T12:18:52;2.10;;;1.03;;
12554;SDS011;6343;50.868;4.700;2022-09-28T12:21:25;3.03;;;1.40;;
12554;SDS011;6343;50.868;4.700;2022-09-28T12:23:59;5.10;;;1.70;;
12554;SDS011;6343;50.868;4.700;2022-09-28T12:26:30;8.03;;;1.40;;
12554;SDS011;6343;50.868;4.700;2022-09-28T12:28:59;4.73;;;1.23;;
12554;SDS011;6343;50.868;4.700;2022-09-28T12:34:24;3.97;;;1.37;;
12554;SDS011;6343;50.868;4.700;2022-09-28T12:39:56;1.90;;;1.20;;
12554;SDS011;6343;50.868;4.700;2022-09-28T12:42:43;2.73;;;1.40;;
12554;SDS011;6343;50.868;4.700;2022-09-28T12:58:27;10.90;;;1.80;;
12554;SDS011;6343;50.868;4.700;2022-09-28T13:06:31;4.13;;;1.77;;
12554;SDS011;6343;50.868;4.700;2022-09-28T13:19:15;5.57;;;1.93;;
12554;SDS011;6343;50.868;4.700;2022-09-28T13:24:34;3.40;;;1.33;;
12554;SDS011;6343;50.868;4.700;2022-09-28T13:27:03;3.67;;;1.27;;
12554;SDS011;6343;50.868;4.700;2022-09-28T13:29:30;2.67;;;1.03;;
12554;SDS011;6343;50.868;4.700;2022-09-28T13:31:58;2.70;;;1.23;;
12554;SDS011;6343;50.868;4.700;2022-09-28T13:34:27;5.23;;;1.13;;
12554;SDS011;6343;50.868;4.700;2022-09-28T13:37:07;2.00;;;1.30;;
12554;SDS011;6343;50.868;4.700;2022-09-28T13:39:55;1.37;;;1.00;;
12554;SDS011;6343;50.868;4.700;2022-09-28T13:47:55;2.23;;;1.20;;
12554;SDS011;6343;50.868;4.700;2022-09-28T13:58:34;3.20;;;1.33;;
12554;SDS011;6343;50.868;4.700;2022-09-28T14:01:06;5.73;;;1.40;;
12554;SDS011;6343;50.868;4.700;2022-09-28T14:06:23;3.87;;;1.70;;
12554;SDS011;6343;50.868;4.700;2022-09-28T14:09:06;3.37;;;1.43;;
12554;SDS011;6343;50.868;4.700;2022-09-28T14:16:27;3.40;;;1.50;;
12554;SDS011;6343;50.868;4.700;2022-09-28T14:19:08;3.73;;;1.33;;
12554;SDS011;6343;50.868;4.700;2022-09-28T14:21:52;2.87;;;1.33;;
12554;SDS011;6343;50.868;4.700;2022-09-28T14:29:53;4.30;;;1.17;;
12554;SDS011;6343;50.868;4.700;2022-09-28T14:32:31;3.20;;;1.53;;
12554;SDS011;6343;50.868;4.700;2022-09-28T14:35:00;4.00;;;1.70;;
12554;SDS011;6343;50.868;4.700;2022-09-28T14:37:32;2.77;;;1.70;;
12554;SDS011;6343;50.868;4.700;2022-09-28T14:43:25;11.83;;;1.87;;
12554;SDS011;6343;50.868;4.700;2022-09-28T14:48:57;4.77;;;1.90;;
12554;SDS011;6343;50.868;4.700;2022-09-28T14:54:04;2.90;;;1.43;;
12554;SDS011;6343;50.868;4.700;2022-09-28T14:59:17;3.57;;;1.60;;
12554;SDS011;6343;50.868;4.700;2022-09-28T15:01:44;3.37;;;1.63;;
12554;SDS011;6343;50.868;4.700;2022-09-28T15:04:13;4.07;;;1.57;;
12554;SDS011;6343;50.868;4.700;2022-09-28T15:06:43;5.07;;;2.00;;
12554;SDS011;6343;50.868;4.700;2022-09-28T15:09:29;2.73;;;1.60;;
12554;SDS011;6343;50.868;4.700;2022-09-28T15:11:59;8.00;;;1.80;;
12554;SDS011;6343;50.868;4.700;2022-09-28T15:14:29;9.07;;;1.60;;
12554;SDS011;6343;50.868;4.700;2022-09-28T15:17:00;4.17;;;1.67;;
12554;SDS011;6343;50.868;4.700;2022-09-28T15:22:18;5.13;;;1.37;;
12554;SDS011;6343;50.868;4.700;2022-09-28T15:24:52;1.83;;;1.10;;
12554;SDS011;6343;50.868;4.700;2022-09-28T15:27:19;7.27;;;1.70;;
12554;SDS011;6343;50.868;4.700;2022-09-28T15:32:22;1.70;;;1.30;;
12554;SDS011;6343;50.868;4.700;2022-09-28T15:34:48;8.47;;;1.57;;
12554;SDS011;6343;50.868;4.700;2022-09-28T15:37:23;4.40;;;1.60;;
12554;SDS011;6343;50.868;4.700;2022-09-28T15:39:49;3.80;;;1.40;;
12554;SDS011;6343;50.868;4.700;2022-09-28T15:42:16;2.27;;;1.50;;
12554;SDS011;6343;50.868;4.700;2022-09-28T15:44:58;3.63;;;1.70;;
12554;SDS011;6343;50.868;4.700;2022-09-28T15:47:25;2.10;;;1.33;;
12554;SDS011;6343;50.868;4.700;2022-09-28T15:50:02;4.83;;;1.37;;
12554;SDS011;6343;50.868;4.700;2022-09-28T15:52:36;1.50;;;1.40;;
12554;SDS011;6343;50.868;4.700;2022-09-28T15:55:49;7.40;;;1.40;;
12554;SDS011;6343;50.868;4.700;2022-09-28T15:58:03;2.73;;;1.73;;
12554;SDS011;6343;50.868;4.700;2022-09-28T16:00:30;3.30;;;1.50;;
12554;SDS011;6343;50.868;4.700;2022-09-28T16:03:29;3.23;;;1.80;;
12554;SDS011;6343;50.868;4.700;2022-09-28T16:13:35;1.70;;;1.20;;
12554;SDS011;6343;50.868;4.700;2022-09-28T16:16:02;3.17;;;1.70;;
12554;SDS011;6343;50.868;4.700;2022-09-28T16:18:29;5.77;;;2.03;;
12554;SDS011;6343;50.868;4.700;2022-09-28T16:21:07;4.27;;;1.90;;
12554;SDS011;6343;50.868;4.700;2022-09-28T16:23:43;3.50;;;1.80;;
12554;SDS011;6343;50.868;4.700;2022-09-28T16:26:15;2.43;;;1.60;;
12554;SDS011;6343;50.868;4.700;2022-09-28T16:28:49;2.30;;;1.80;;
12554;SDS011;6343;50.868;4.700;2022-09-28T16:33:51;2.97;;;1.60;;
12554;SDS011;6343;50.868;4.700;2022-09-28T16:36:21;2.77;;;1.30;;
12554;SDS011;6343;50.868;4.700;2022-09-28T16:38:47;2.20;;;1.57;;
12554;SDS011;6343;50.868;4.700;2022-09-28T16:41:14;2.70;;;2.03;;
12554;SDS011;6343;50.868;4.700;2022-09-28T16:43:44;3.10;;;1.80;;
12554;SDS011;6343;50.868;4.700;2022-09-28T16:46:11;3.03;;;1.80;;
12554;SDS011;6343;50.868;4.700;2022-09-28T16:48:42;3.53;;;1.63;;
12554;SDS011;6343;50.868;4.700;2022-09-28T16:51:15;2.77;;;1.70;;
12554;SDS011;6343;50.868;4.700;2022-09-28T16:53:42;2.73;;;1.50;;
12554;SDS011;6343;50.868;4.700;2022-09-28T16:56:27;2.73;;;1.30;;
12554;SDS011;6343;50.868;4.700;2022-09-28T16:58:53;2.60;;;1.30;;
12554;SDS011;6343;50.868;4.700;2022-09-28T17:01:20;1.63;;;1.37;;
12554;SDS011;6343;50.868;4.700;2022-09-28T17:03:46;3.73;;;1.77;;
12554;SDS011;6343;50.868;4.700;2022-09-28T17:06:14;3.60;;;2.07;;
12554;SDS011;6343;50.868;4.700;2022-09-28T17:08:41;7.00;;;3.00;;
12554;SDS011;6343;50.868;4.700;2022-09-28T17:11:08;9.53;;;4.40;;
12554;SDS011;6343;50.868;4.700;2022-09-28T17:13:37;9.00;;;5.53;;
12554;SDS011;6343;50.868;4.700;2022-09-28T17:16:04;4.57;;;3.47;;
12554;SDS011;6343;50.868;4.700;2022-09-28T17:18:32;4.93;;;3.33;;
12554;SDS011;6343;50.868;4.700;2022-09-28T17:21:02;9.10;;;5.63;;
12554;SDS011;6343;50.868;4.700;2022-09-28T17:23:28;4.70;;;2.80;;
12554;SDS011;6343;50.868;4.700;2022-09-28T17:25:54;6.57;;;2.40;;
12554;SDS011;6343;50.868;4.700;2022-09-28T17:28:22;5.23;;;2.67;;
12554;SDS011;6343;50.868;4.700;2022-09-28T17:30:49;8.97;;;3.57;;
12554;SDS011;6343;50.868;4.700;2022-09-28T17:33:15;8.70;;;4.17;;
12554;SDS011;6343;50.868;4.700;2022-09-28T17:35:41;9.17;;;4.17;;
12554;SDS011;6343;50.868;4.700;2022-09-28T17:38:09;5.60;;;4.33;;
12554;SDS011;6343;50.868;4.700;2022-09-28T17:40:35;8.10;;;5.20;;
12554;SDS011;6343;50.868;4.700;2022-09-28T17:43:01;7.10;;;4.67;;
12554;SDS011;6343;50.868;4.700;2022-09-28T17:45:29;5.10;;;3.87;;
12554;SDS011;6343;50.868;4.700;2022-09-28T17:47:56;5.67;;;4.63;;
12554;SDS011;6343;50.868;4.700;2022-09-28T17:50:23;7.40;;;5.30;;
12554;SDS011;6343;50.868;4.700;2022-09-28T17:52:50;10.87;;;4.40;;
12554;SDS011;6343;50.868;4.700;2022-09-28T17:56:55;10.53;;;5.60;;
12554;SDS011;6343;50.868;4.700;2022-09-28T17:59:22;12.17;;;5.53;;
12554;SDS011;6343;50.868;4.700;2022-09-28T18:01:48;11.23;;;6.00;;
12554;SDS011;6343;50.868;4.700;2022-09-28T18:04:14;9.00;;;3.87;;
12554;SDS011;6343;50.868;4.700;2022-09-28T18:06:41;6.47;;;3.10;;